createdAt,value
2022-10-02T00:00:40.016Z,5.25
2022-10-02T00:03:12.019Z,5.35
2022-10-02T00:05:43.110Z,4.75
2022-10-02T00:08:15.953Z,5.70
2022-10-02T00:10:50.106Z,5.35
2022-10-02T00:13:20.463Z,5.65
2022-10-02T00:15:48.147Z,5.40
2022-10-02T00:18:18.651Z,4.60
2022-10-02T00:20:52.560Z,5.80
2022-10-02T00:23:26.746Z,5.00
2022-10-02T00:26:01.419Z,5.00
2022-10-02T00:28:35.423Z,4.10
2022-10-02T00:31:15.727Z,2.90
2022-10-02T00:33:52.419Z,3.10
2022-10-02T00:36:29.741Z,3.08
2022-10-02T00:39:04.491Z,2.92
2022-10-02T00:42:01.547Z,3.38
2022-10-02T00:44:47.970Z,3.38
2022-10-02T00:47:22.799Z,3.97
2022-10-02T00:50:03.443Z,3.42
2022-10-02T00:52:45.072Z,3.53
2022-10-02T00:55:31.092Z,3.38
2022-10-02T00:58:07.862Z,3.05
2022-10-02T01:00:34.602Z,3.20
2022-10-02T01:03:11.545Z,3.65
2022-10-02T01:05:38.327Z,3.85
2022-10-02T01:08:05.143Z,4.70
2022-10-02T01:10:34.636Z,3.83
2022-10-02T01:13:01.251Z,4.20
2022-10-02T01:15:31.720Z,3.97
2022-10-02T01:17:58.723Z,4.63
2022-10-02T01:20:39.651Z,3.63
2022-10-02T01:23:15.427Z,3.50
2022-10-02T01:25:43.975Z,3.30
2022-10-02T01:28:10.779Z,3.13
2022-10-02T01:30:40.903Z,3.75
2022-10-02T01:33:07.689Z,3.10
2022-10-02T01:35:37.117Z,2.80
2022-10-02T01:38:06.926Z,2.97
2022-10-02T01:40:35.228Z,2.88
2022-10-02T01:43:05.257Z,2.85
2022-10-02T01:45:43.858Z,2.67
2022-10-02T01:48:15.591Z,2.63
2022-10-02T01:50:52.239Z,2.50
2022-10-02T01:53:23.803Z,3.17
2022-10-02T01:55:57.439Z,3.53
2022-10-02T01:58:31.916Z,4.43
2022-10-02T02:01:09.212Z,5.40
2022-10-02T02:03:43.316Z,5.30
2022-10-02T02:06:15.226Z,7.47
2022-10-02T02:08:49.279Z,7.40
2022-10-02T02:11:18.248Z,6.80
2022-10-02T02:13:49.747Z,6.07
2022-10-02T02:16:25.227Z,5.80
2022-10-02T02:18:57.974Z,5.65
2022-10-02T02:21:29.023Z,8.35
2022-10-02T02:23:57.241Z,7.10
2022-10-02T02:26:25.508Z,5.88
2022-10-02T02:28:58.995Z,5.37
2022-10-02T02:31:32.140Z,5.38
2022-10-02T02:34:02.555Z,6.20
2022-10-02T02:36:34.222Z,6.15
2022-10-02T02:39:04.740Z,6.90
2022-10-02T02:41:38.575Z,6.70
2022-10-02T02:44:10.865Z,7.35
2022-10-02T02:46:41.432Z,7.90
2022-10-02T02:49:11.178Z,7.70
2022-10-02T02:51:42.919Z,7.72
2022-10-02T02:54:15.376Z,8.93
2022-10-02T02:56:44.221Z,7.53
2022-10-02T02:59:14.656Z,7.97
2022-10-02T03:01:41.972Z,7.43
2022-10-02T03:04:11.555Z,6.88
2022-10-02T03:06:40.372Z,7.27
2022-10-02T03:09:11.872Z,6.47
2022-10-02T03:11:50.082Z,6.07
2022-10-02T03:14:52.513Z,6.35
2022-10-02T03:17:32.289Z,5.70
2022-10-02T03:20:05.670Z,6.00
2022-10-02T03:22:39.640Z,5.50
2022-10-02T03:25:12.162Z,6.05
2022-10-02T03:27:42.681Z,6.53
2022-10-02T03:30:12.766Z,5.75
2022-10-02T03:32:42.636Z,5.43
2022-10-02T03:35:11.621Z,5.93
2022-10-02T03:37:39.556Z,5.63
2022-10-02T03:40:07.047Z,5.18
2022-10-02T03:42:35.240Z,4.93
2022-10-02T03:45:01.900Z,4.90
2022-10-02T03:47:29.904Z,5.10
2022-10-02T03:49:56.448Z,5.22
2022-10-02T03:52:25.741Z,4.97
2022-10-02T03:54:56.663Z,5.20
2022-10-02T03:57:25.439Z,5.37
2022-10-02T03:59:57.575Z,6.00
2022-10-02T04:02:34.730Z,5.93
2022-10-02T04:05:10.266Z,5.70
2022-10-02T04:07:39.744Z,5.18
2022-10-02T04:10:32.010Z,5.60
2022-10-02T04:13:07.263Z,5.78
2022-10-02T04:15:49.726Z,6.10
2022-10-02T04:18:22.805Z,5.97
2022-10-02T04:20:52.996Z,5.90
2022-10-02T04:23:24.126Z,5.80
2022-10-02T04:25:55.490Z,6.10
2022-10-02T04:28:27.020Z,6.15
2022-10-02T04:30:54.046Z,6.20
2022-10-02T04:33:24.854Z,6.22
2022-10-02T04:35:59.851Z,6.40
2022-10-02T04:38:48.995Z,6.22
2022-10-02T04:41:31.268Z,7.03
2022-10-02T04:44:07.611Z,6.03
2022-10-02T04:46:56.139Z,6.60
2022-10-02T04:49:38.219Z,6.43
2022-10-02T04:52:21.044Z,5.85
2022-10-02T04:55:03.063Z,6.22
2022-10-02T04:57:52.168Z,6.40
2022-10-02T05:00:20.554Z,6.15
2022-10-02T05:03:02.530Z,6.20
2022-10-02T05:05:48.285Z,5.80
2022-10-02T05:08:35.191Z,6.20
2022-10-02T05:11:23.136Z,5.45
2022-10-02T05:14:20.430Z,5.20
2022-10-02T05:17:05.971Z,4.77
2022-10-02T05:19:55.229Z,4.50
2022-10-02T05:22:37.478Z,4.68
2022-10-02T05:25:19.822Z,5.30
2022-10-02T05:27:59.746Z,4.90
2022-10-02T05:30:34.346Z,4.37
2022-10-02T05:33:20.032Z,4.50
2022-10-02T05:36:08.487Z,4.28
2022-10-02T05:38:53.565Z,4.57
2022-10-02T05:41:33.019Z,4.03
2022-10-02T05:44:06.183Z,3.33
2022-10-02T05:46:37.409Z,3.40
2022-10-02T05:49:08.521Z,3.70
2022-10-02T05:51:43.335Z,3.70
2022-10-02T05:54:22.104Z,3.60
2022-10-02T05:56:55.205Z,3.30
2022-10-02T05:59:28.203Z,3.58
2022-10-02T06:01:58.100Z,3.17
2022-10-02T06:04:30.656Z,3.53
2022-10-02T06:07:04.217Z,4.28
2022-10-02T06:09:36.500Z,4.03
2022-10-02T06:12:06.246Z,3.88
2022-10-02T06:14:37.171Z,4.45
2022-10-02T06:17:10.182Z,3.45
2022-10-02T06:19:40.704Z,3.92
2022-10-02T06:22:13.222Z,3.43
2022-10-02T06:24:47.239Z,4.38
2022-10-02T06:27:21.840Z,3.83
2022-10-02T06:29:54.267Z,3.35
2022-10-02T06:32:34.010Z,3.25
2022-10-02T06:35:01.584Z,2.60
2022-10-02T06:37:50.760Z,2.80
2022-10-02T06:40:48.186Z,3.33
2022-10-02T06:43:27.670Z,3.10
2022-10-02T06:46:02.568Z,3.92
2022-10-02T06:48:37.944Z,3.37
2022-10-02T06:51:11.311Z,4.60
2022-10-02T06:53:58.904Z,3.95
2022-10-02T06:56:37.787Z,4.28
2022-10-02T06:59:20.869Z,4.90
2022-10-02T07:01:59.961Z,4.07
2022-10-02T07:04:42.479Z,4.72
2022-10-02T07:07:31.962Z,4.05
2022-10-02T07:10:16.479Z,4.85
2022-10-02T07:13:02.063Z,4.53
2022-10-02T07:15:50.738Z,4.50
2022-10-02T07:18:25.063Z,5.18
2022-10-02T07:20:58.868Z,5.22
2022-10-02T07:24:01.535Z,4.70
2022-10-02T07:26:45.150Z,4.78
2022-10-02T07:29:27.127Z,4.30
2022-10-02T07:32:19.633Z,4.20
2022-10-02T07:34:54.086Z,5.00
2022-10-02T07:37:27.700Z,4.50
2022-10-02T07:40:11.162Z,4.45
2022-10-02T07:43:04.815Z,4.27
2022-10-02T07:45:37.360Z,4.10
2022-10-02T07:48:33.483Z,4.13
2022-10-02T07:51:06.323Z,3.22
2022-10-02T07:53:39.083Z,4.30
2022-10-02T07:56:08.235Z,4.00
2022-10-02T07:58:38.663Z,4.30
2022-10-02T08:01:12.752Z,3.78
2022-10-02T08:03:44.039Z,3.70
2022-10-02T08:06:11.191Z,4.82
2022-10-02T08:08:42.538Z,4.63
2022-10-02T08:11:15.578Z,4.65
2022-10-02T08:13:46.465Z,4.95
2022-10-02T08:16:16.572Z,5.40
2022-10-02T08:18:47.387Z,4.43
2022-10-02T08:21:18.719Z,4.90
2022-10-02T08:23:55.103Z,4.50
2022-10-02T08:26:27.651Z,4.07
2022-10-02T08:28:58.944Z,3.28
2022-10-02T08:31:26.926Z,3.70
2022-10-02T08:33:53.503Z,3.40
2022-10-02T08:36:52.044Z,4.38
2022-10-02T08:39:48.292Z,3.20
2022-10-02T08:42:38.716Z,3.40
2022-10-02T08:45:36.838Z,3.08
2022-10-02T08:48:43.115Z,3.63
2022-10-02T08:51:40.744Z,3.70
2022-10-02T08:54:54.194Z,4.43
2022-10-02T08:57:51.337Z,3.10
2022-10-02T09:00:25.016Z,2.80
2022-10-02T09:03:54.456Z,2.33
2022-10-02T09:06:58.080Z,2.00
2022-10-02T09:10:00.284Z,2.53
2022-10-02T09:12:59.780Z,1.98
2022-10-02T09:15:38.502Z,1.95
2022-10-02T09:18:16.960Z,2.77
2022-10-02T09:20:54.314Z,2.50
2022-10-02T09:24:05.239Z,3.28
2022-10-02T09:26:51.742Z,2.78
2022-10-02T09:30:02.884Z,2.70
2022-10-02T09:33:15.238Z,2.33
2022-10-02T09:36:06.024Z,2.47
2022-10-02T09:39:08.178Z,2.70
2022-10-02T09:42:06.378Z,2.50
2022-10-02T09:45:13.918Z,2.40
2022-10-02T09:48:12.285Z,2.00
2022-10-02T09:51:16.992Z,2.83
2022-10-02T09:54:25.422Z,2.00
2022-10-02T09:57:30.003Z,3.22
2022-10-02T10:00:19.623Z,2.65
2022-10-02T10:03:24.700Z,2.23
2022-10-02T10:06:36.431Z,2.35
2022-10-02T10:09:44.497Z,2.42
2022-10-02T10:12:42.451Z,2.72
2022-10-02T10:15:42.824Z,3.03
2022-10-02T10:18:55.987Z,3.00
2022-10-02T10:22:04.754Z,2.70
2022-10-02T10:24:52.920Z,2.50
2022-10-02T10:27:48.262Z,1.70
2022-10-02T10:30:34.474Z,2.45
2022-10-02T10:33:34.186Z,2.10
2022-10-02T10:36:36.912Z,2.05
2022-10-02T10:39:24.608Z,1.75
2022-10-02T10:42:14.602Z,1.70
2022-10-02T10:45:07.338Z,2.13
2022-10-02T10:47:46.828Z,1.80
2022-10-02T10:50:29.239Z,1.38
2022-10-02T10:53:19.449Z,1.90
2022-10-02T10:56:05.056Z,1.98
2022-10-02T10:58:50.172Z,2.60
2022-10-02T11:01:19.586Z,1.70
2022-10-02T11:04:12.439Z,2.25
2022-10-02T11:07:05.516Z,1.52
2022-10-02T11:10:09.324Z,1.30
2022-10-02T11:13:13.601Z,1.70
2022-10-02T11:16:11.774Z,1.90
2022-10-02T11:18:51.045Z,1.52
2022-10-02T11:21:52.897Z,1.65
2022-10-02T11:24:42.160Z,1.30
2022-10-02T11:27:32.256Z,1.80
2022-10-02T11:30:17.595Z,3.03
2022-10-02T11:33:02.911Z,2.28
2022-10-02T11:35:54.312Z,1.70
2022-10-02T11:38:34.667Z,2.15
2022-10-02T11:41:17.287Z,1.98
2022-10-02T11:43:58.032Z,2.60
2022-10-02T11:46:43.127Z,2.60
2022-10-02T11:49:39.238Z,2.80
2022-10-02T11:52:47.967Z,3.15
2022-10-02T11:55:28.631Z,2.08
2022-10-02T11:58:06.134Z,1.80
2022-10-02T12:00:52.775Z,1.70
2022-10-02T12:03:25.713Z,1.63
2022-10-02T12:06:01.791Z,2.00
2022-10-02T12:08:43.884Z,1.60
2022-10-02T12:11:14.982Z,1.90
2022-10-02T12:13:59.939Z,1.80
2022-10-02T12:16:39.322Z,1.73
2022-10-02T12:19:19.419Z,2.00
2022-10-02T12:22:04.996Z,1.60
2022-10-02T12:24:41.475Z,1.60
2022-10-02T12:27:12.791Z,2.00
2022-10-02T12:30:02.889Z,2.05
2022-10-02T12:32:59.885Z,2.70
2022-10-02T12:35:38.712Z,2.42
2022-10-02T12:38:23.249Z,3.53
2022-10-02T12:41:01.635Z,5.00
2022-10-02T12:44:05.095Z,4.20
2022-10-02T12:47:22.477Z,3.90
2022-10-02T12:50:03.071Z,4.20
2022-10-02T12:53:06.906Z,6.93
2022-10-02T12:56:03.215Z,7.95
2022-10-02T12:58:41.622Z,5.15
2022-10-02T13:01:34.816Z,3.78
2022-10-02T13:04:46.046Z,2.97
2022-10-02T13:07:51.842Z,2.50
2022-10-02T13:10:29.959Z,1.73
2022-10-02T13:13:11.604Z,1.80
2022-10-02T13:15:46.908Z,2.08
2022-10-02T13:18:38.346Z,1.80
2022-10-02T13:21:13.975Z,1.80
2022-10-02T13:23:48.863Z,1.50
2022-10-02T13:26:27.046Z,2.25
2022-10-02T13:29:38.377Z,1.42
2022-10-02T13:32:25.291Z,1.98
2022-10-02T13:35:05.880Z,1.67
2022-10-02T13:37:42.996Z,2.20
2022-10-02T13:40:25.207Z,2.55
2022-10-02T13:43:17.758Z,1.70
2022-10-02T13:45:52.862Z,1.33
2022-10-02T13:48:31.533Z,1.53
2022-10-02T13:51:04.318Z,1.67
2022-10-02T13:54:02.481Z,1.73
2022-10-02T13:56:43.516Z,1.63
2022-10-02T13:59:41.548Z,2.10
2022-10-02T14:02:27.788Z,1.60
2022-10-02T14:05:01.750Z,2.35
2022-10-02T14:07:43.117Z,2.25
2022-10-02T14:10:19.538Z,1.88
2022-10-02T14:13:03.287Z,1.70
2022-10-02T14:15:43.082Z,1.50
2022-10-02T14:18:26.111Z,2.20
2022-10-02T14:21:04.164Z,3.45
2022-10-02T14:23:50.763Z,4.78
2022-10-02T14:26:24.895Z,4.68
2022-10-02T14:29:23.256Z,4.10
2022-10-02T14:32:10.839Z,3.65
2022-10-02T14:34:52.749Z,2.47
2022-10-02T14:37:57.353Z,1.80
2022-10-02T14:40:28.735Z,1.20
2022-10-02T14:43:10.428Z,1.63
2022-10-02T14:46:00.056Z,1.83
2022-10-02T14:48:45.688Z,1.77
2022-10-02T14:51:35.830Z,1.80
2022-10-02T14:54:32.647Z,1.70
2022-10-02T14:57:22.849Z,1.47
2022-10-02T15:00:03.870Z,2.13
2022-10-02T15:02:53.228Z,2.17
2022-10-02T15:05:41.304Z,2.00
2022-10-02T15:08:14.069Z,1.80
2022-10-02T15:10:42.163Z,1.70
2022-10-02T15:13:14.171Z,1.75
2022-10-02T15:15:46.536Z,1.90
2022-10-02T15:18:23.806Z,2.47
2022-10-02T15:20:56.609Z,2.53
2022-10-02T15:23:38.649Z,2.23
2022-10-02T15:26:19.826Z,2.63
2022-10-02T15:28:55.927Z,3.13
2022-10-02T15:31:32.181Z,3.00
2022-10-02T15:34:08.847Z,3.58
2022-10-02T15:37:07.867Z,3.80
2022-10-02T15:39:49.446Z,3.08
2022-10-02T15:42:26.022Z,2.67
2022-10-02T15:45:08.009Z,2.90
2022-10-02T15:47:47.782Z,2.88
2022-10-02T15:50:23.980Z,2.90
2022-10-02T15:53:01.772Z,3.15
2022-10-02T15:55:36.514Z,3.08
2022-10-02T15:58:18.476Z,2.90
2022-10-02T16:01:07.438Z,2.88
2022-10-02T16:03:42.915Z,2.87
2022-10-02T16:06:16.875Z,2.97
2022-10-02T16:09:08.919Z,3.67
2022-10-02T16:12:05.043Z,3.22
2022-10-02T16:14:44.567Z,3.92
2022-10-02T16:17:39.975Z,4.07
2022-10-02T16:20:22.132Z,5.55
2022-10-02T16:23:08.674Z,4.82
2022-10-02T16:25:49.500Z,5.90
2022-10-02T16:28:29.211Z,6.50
2022-10-02T16:31:11.065Z,7.70
2022-10-02T16:33:49.114Z,9.15
2022-10-02T16:36:26.367Z,12.77
2022-10-02T16:39:13.635Z,14.90
2022-10-02T16:41:58.592Z,7.65
2022-10-02T16:44:43.848Z,6.63
2022-10-02T16:47:16.264Z,5.95
2022-10-02T16:49:49.783Z,6.30
2022-10-02T16:52:22.373Z,7.13
2022-10-02T16:54:59.943Z,9.52
2022-10-02T16:57:47.646Z,18.40
2022-10-02T17:00:16.616Z,17.55
2022-10-02T17:02:48.928Z,14.85
2022-10-02T17:05:23.415Z,15.38
2022-10-02T17:07:55.719Z,13.60
2022-10-02T17:10:33.235Z,12.63
2022-10-02T17:13:13.827Z,12.52
2022-10-02T17:15:44.911Z,12.40
2022-10-02T17:18:26.616Z,12.23
2022-10-02T17:20:56.414Z,15.32
2022-10-02T17:23:33.939Z,12.73
2022-10-02T17:26:06.914Z,11.77
2022-10-02T17:28:40.007Z,11.27
2022-10-02T17:31:19.463Z,10.60
2022-10-02T17:33:52.063Z,9.50
2022-10-02T17:36:28.535Z,8.87
2022-10-02T17:39:30.345Z,17.20
2022-10-02T17:42:08.250Z,20.90
2022-10-02T17:44:46.087Z,17.77
2022-10-02T17:47:37.760Z,14.38
2022-10-02T17:50:26.347Z,12.80
2022-10-02T17:53:03.250Z,11.38
2022-10-02T17:56:12.062Z,10.50
2022-10-02T17:58:45.957Z,9.85
2022-10-02T18:01:29.023Z,9.77
2022-10-02T18:04:11.294Z,10.27
2022-10-02T18:06:49.470Z,9.20
2022-10-02T18:09:28.472Z,7.88
2022-10-02T18:12:13.939Z,8.20
2022-10-02T18:15:10.684Z,8.60
2022-10-02T18:17:47.639Z,7.93
2022-10-02T18:20:26.679Z,6.70
2022-10-02T18:23:16.356Z,7.07
2022-10-02T18:26:07.193Z,6.80
2022-10-02T18:28:50.065Z,7.45
2022-10-02T18:31:54.645Z,8.50
2022-10-02T18:34:44.100Z,7.75
2022-10-02T18:37:37.936Z,6.72
2022-10-02T18:40:19.024Z,7.05
2022-10-02T18:42:55.805Z,9.00
2022-10-02T18:45:33.961Z,9.20
2022-10-02T18:48:25.045Z,10.15
2022-10-02T18:51:07.731Z,10.52
2022-10-02T18:53:47.207Z,10.98
2022-10-02T18:56:17.972Z,10.43
2022-10-02T18:58:57.304Z,9.10
2022-10-02T19:01:37.503Z,10.10
2022-10-02T19:04:29.515Z,12.05
2022-10-02T19:07:04.747Z,11.10
2022-10-02T19:09:31.532Z,11.27
2022-10-02T19:12:02.023Z,11.43
2022-10-02T19:14:33.591Z,8.10
2022-10-02T19:17:01.723Z,7.88
2022-10-02T19:19:29.343Z,7.43
2022-10-02T19:22:01.130Z,6.25
2022-10-02T19:24:31.336Z,5.07
2022-10-02T19:27:04.268Z,3.30
2022-10-02T19:29:34.100Z,3.90
2022-10-02T19:32:09.134Z,4.47
2022-10-02T19:34:35.761Z,4.30
2022-10-02T19:37:05.758Z,4.37
2022-10-02T19:39:34.604Z,3.97
2022-10-02T19:42:06.735Z,3.47
2022-10-02T19:44:38.316Z,3.20
2022-10-02T19:47:14.752Z,3.35
2022-10-02T19:49:41.695Z,2.47
2022-10-02T19:52:35.087Z,2.63
2022-10-02T19:55:03.659Z,3.55
2022-10-02T19:57:38.800Z,3.25
2022-10-02T20:00:14.159Z,3.65
2022-10-02T20:02:44.394Z,3.00
2022-10-02T20:05:20.399Z,2.97
2022-10-02T20:07:49.608Z,3.72
2022-10-02T20:10:19.703Z,3.33
2022-10-02T20:12:51.842Z,3.45
2022-10-02T20:15:22.391Z,3.97
2022-10-02T20:17:48.908Z,4.22
2022-10-02T20:20:15.696Z,3.92
2022-10-02T20:22:47.375Z,4.40
2022-10-02T20:25:19.541Z,4.85
2022-10-02T20:27:52.175Z,4.43
2022-10-02T20:30:21.347Z,4.53
2022-10-02T20:32:55.385Z,4.88
2022-10-02T20:35:26.395Z,5.53
2022-10-02T20:37:55.069Z,4.75
2022-10-02T20:40:25.450Z,5.53
2022-10-02T20:43:00.042Z,5.88
2022-10-02T20:45:37.286Z,4.80
2022-10-02T20:49:03.488Z,6.05
2022-10-02T20:51:55.194Z,5.43
2022-10-02T20:54:51.184Z,5.93
2022-10-02T20:58:01.077Z,5.82
2022-10-02T21:00:40.031Z,6.60
2022-10-02T21:03:35.655Z,5.75
2022-10-02T21:06:32.726Z,6.25
2022-10-02T21:09:28.961Z,6.27
2022-10-02T21:12:23.472Z,6.78
2022-10-02T21:15:22.364Z,6.43
2022-10-02T21:18:06.429Z,5.63
2022-10-02T21:21:08.937Z,5.50
2022-10-02T21:23:59.719Z,5.37
2022-10-02T21:26:58.280Z,6.22
2022-10-02T21:29:43.041Z,5.00
2022-10-02T21:32:27.595Z,5.07
2022-10-02T21:35:05.969Z,5.30
2022-10-02T21:37:44.338Z,5.97
2022-10-02T21:40:52.246Z,5.07
2022-10-02T21:43:49.107Z,5.30
2022-10-02T21:46:54.579Z,5.13
2022-10-02T21:49:57.563Z,5.55
2022-10-02T21:52:55.971Z,5.13
2022-10-02T21:55:59.793Z,5.63
2022-10-02T21:58:51.907Z,5.80
2022-10-02T22:02:07.347Z,5.82
2022-10-02T22:05:01.724Z,5.63
2022-10-02T22:07:35.843Z,5.67
2022-10-02T22:10:11.124Z,5.18
2022-10-02T22:12:49.176Z,5.93
2022-10-02T22:15:22.537Z,5.70
2022-10-02T22:17:57.428Z,6.25
2022-10-02T22:20:38.080Z,6.97
2022-10-02T22:23:19.164Z,5.88
2022-10-02T22:25:58.979Z,6.50
2022-10-02T22:28:37.975Z,6.45
2022-10-02T22:31:34.012Z,6.63
2022-10-02T22:34:13.980Z,6.07
2022-10-02T22:37:17.734Z,6.47
2022-10-02T22:39:48.803Z,6.55
2022-10-02T22:42:22.311Z,6.32
2022-10-02T22:44:54.604Z,5.82
2022-10-02T22:47:29.821Z,5.40
2022-10-02T22:49:59.766Z,6.30
2022-10-02T22:52:31.610Z,5.20
2022-10-02T22:55:05.063Z,5.70
2022-10-02T22:57:40.127Z,6.22
2022-10-02T23:00:17.158Z,6.00
2022-10-02T23:02:48.434Z,5.75
2022-10-02T23:05:22.181Z,5.50
2022-10-02T23:07:54.423Z,5.35
2022-10-02T23:10:28.835Z,5.57
2022-10-02T23:13:03.079Z,5.53
2022-10-02T23:15:41.000Z,5.57
2022-10-02T23:18:17.414Z,6.32
2022-10-02T23:20:52.845Z,5.60
2022-10-02T23:23:23.600Z,6.55
2022-10-02T23:25:56.224Z,6.07
2022-10-02T23:28:28.831Z,6.78
2022-10-02T23:31:06.790Z,6.70
2022-10-02T23:33:42.811Z,7.35
2022-10-02T23:36:21.817Z,6.22
2022-10-02T23:38:53.162Z,6.30
2022-10-02T23:41:24.274Z,5.82
2022-10-02T23:44:01.154Z,6.43
2022-10-02T23:46:34.246Z,5.80
2022-10-02T23:49:02.092Z,8.05
2022-10-02T23:51:43.122Z,6.67
2022-10-02T23:54:29.440Z,7.55
2022-10-02T23:57:11.953Z,7.18
